Time;durP1;ratioP1;P1;durP2;ratioP2;P2;SDS_P1;SDS_P2;PMS_P1;PMS_P2;Temp;Humidity;BMP_temperature;BMP_pressure;BME280_temperature;BME280_humidity;BME280_pressure;Samples;Min_cycle;Max_cycle;Signal;HPM_P1;HPM_P2
2023/05/28 00:01:38;;;;;;;7.37;4.80;;;11.00;99.90;;;;;;466750;247;27987;-82
2023/05/28 00:03:41;;;;;;;8.03;4.10;;;11.00;99.90;;;;;;468321;247;28013;-82
2023/05/28 00:05:41;;;;;;;11.40;5.60;;;11.20;99.90;;;;;;468282;247;28363;-83
2023/05/28 00:07:42;;;;;;;9.30;4.70;;;11.40;99.90;;;;;;468302;247;28101;-82
2023/05/28 00:09:43;;;;;;;10.47;4.80;;;11.60;99.90;;;;;;468305;247;28355;-82
2023/05/28 00:11:45;;;;;;;9.27;5.10;;;11.60;99.90;;;;;;479666;239;27935;-81
2023/05/28 00:13:46;;;;;;;7.23;4.87;;;11.40;99.90;;;;;;487733;241;28878;-80
2023/05/28 00:15:47;;;;;;;6.80;4.60;;;11.30;99.90;;;;;;471885;242;28012;-79
2023/05/28 00:17:52;;;;;;;10.43;4.47;;;11.10;99.90;;;;;;469742;252;28064;-80
2023/05/28 00:19:50;;;;;;;9.23;5.23;;;11.00;99.90;;;;;;469578;252;28132;-81
2023/05/28 00:21:51;;;;;;;10.07;5.30;;;10.90;99.90;;;;;;469707;250;28341;-80
2023/05/28 00:23:52;;;;;;;13.30;5.53;;;10.80;99.90;;;;;;469721;250;28627;-80
2023/05/28 00:25:54;;;;;;;10.10;5.30;;;10.70;99.90;;;;;;469681;250;28141;-80
2023/05/28 00:30:05;;;;;;;8.70;5.23;;;10.50;99.90;;;;;;472673;248;28255;-83
2023/05/28 00:32:07;;;;;;;9.03;4.83;;;;;;;;;;490398;239;28202;-82
2023/05/28 00:34:08;;;;;;;6.17;5.13;;;10.50;99.90;;;;;;490387;240;27082;-82
2023/05/28 00:36:10;;;;;;;10.20;4.90;;;10.50;99.90;;;;;;490403;240;28025;-83
2023/05/28 00:38:11;;;;;;;8.10;5.13;;;10.60;99.90;;;;;;490364;239;27974;-82
2023/05/28 00:40:17;;;;;;;6.50;4.63;;;;;;;;;;490404;239;28501;-82
2023/05/28 00:42:14;;;;;;;9.10;5.30;;;10.60;99.90;;;;;;490308;239;27149;-82
2023/05/28 00:44:16;;;;;;;10.40;5.37;;;10.50;99.90;;;;;;480839;244;27966;-84
2023/05/28 00:46:19;;;;;;;8.30;5.33;;;;;;;;;;481199;240;28230;-82
2023/05/28 00:48:19;;;;;;;11.33;5.03;;;10.30;99.90;;;;;;481198;240;27207;-82
2023/05/28 00:50:21;;;;;;;8.73;5.30;;;10.40;99.90;;;;;;473241;236;28159;-83
2023/05/28 00:52:22;;;;;;;13.93;6.57;;;10.30;99.90;;;;;;489565;240;28312;-82
2023/05/28 00:54:23;;;;;;;9.23;4.50;;;10.20;99.90;;;;;;483170;241;28297;-82
2023/05/28 00:56:24;;;;;;;8.90;5.00;;;10.20;99.90;;;;;;488107;240;28097;-82
2023/05/28 00:58:26;;;;;;;8.57;5.00;;;10.10;99.90;;;;;;488101;240;28079;-83
2023/05/28 01:00:27;;;;;;;11.70;6.50;;;10.10;99.90;;;;;;486591;237;28127;-80
2023/05/28 01:02:28;;;;;;;9.47;5.13;;;10.10;99.90;;;;;;483964;242;28347;-82
2023/05/28 01:04:32;;;;;;;7.63;4.60;;;10.10;99.90;;;;;;483888;241;28197;-81
2023/05/28 01:06:37;;;;;;;9.50;5.40;;;;;;;;;;483998;242;28221;-79
2023/05/28 01:08:36;;;;;;;8.20;5.80;;;10.00;99.90;;;;;;480531;248;27210;-80
2023/05/28 01:10:37;;;;;;;11.30;5.30;;;10.00;99.90;;;;;;483970;246;28066;-82
2023/05/28 01:12:38;;;;;;;7.97;4.50;;;9.90;99.90;;;;;;483960;244;28304;-83
2023/05/28 01:14:40;;;;;;;10.67;5.80;;;9.90;99.90;;;;;;483947;246;28308;-81
2023/05/28 01:16:41;;;;;;;7.67;5.20;;;9.90;99.90;;;;;;484016;244;28192;-82
2023/05/28 01:18:44;;;;;;;10.83;5.60;;;9.90;99.90;;;;;;480567;246;28106;-82
2023/05/28 01:20:43;;;;;;;10.10;5.10;;;9.80;99.90;;;;;;483726;244;28075;-83
2023/05/28 01:22:45;;;;;;;9.70;5.90;;;9.80;99.90;;;;;;483986;246;28069;-82
2023/05/28 01:24:47;;;;;;;11.37;5.60;;;;;;;;;;483910;246;28215;-84
2023/05/28 01:26:48;;;;;;;7.00;5.50;;;9.70;99.90;;;;;;483835;246;27785;-82
2023/05/28 01:28:49;;;;;;;7.57;5.10;;;9.80;99.90;;;;;;483894;244;28171;-80
2023/05/28 01:30:52;;;;;;;8.40;5.17;;;9.80;99.90;;;;;;483882;244;27969;-84
2023/05/28 01:32:52;;;;;;;10.37;5.00;;;9.80;99.90;;;;;;483843;245;27944;-79
2023/05/28 01:34:53;;;;;;;11.93;6.07;;;9.80;99.90;;;;;;483890;244;28049;-80
2023/05/28 01:36:56;;;;;;;7.47;4.97;;;9.90;99.90;;;;;;483907;244;27881;-79
2023/05/28 01:38:58;;;;;;;6.70;4.83;;;9.90;99.90;;;;;;483889;245;28206;-80
2023/05/28 01:40:57;;;;;;;7.03;4.87;;;9.80;99.90;;;;;;483736;245;27993;-80
2023/05/28 01:42:58;;;;;;;6.10;4.57;;;9.80;99.90;;;;;;483935;246;27747;-81
2023/05/28 01:44:59;;;;;;;6.13;4.90;;;9.90;99.90;;;;;;483929;244;28067;-83
2023/05/28 01:47:01;;;;;;;8.90;4.93;;;9.90;99.90;;;;;;483926;244;27968;-82
2023/05/28 01:49:02;;;;;;;9.00;5.37;;;10.00;99.90;;;;;;483928;244;28092;-81
2023/05/28 01:51:03;;;;;;;9.67;5.03;;;10.00;99.90;;;;;;483961;244;28162;-80
2023/05/28 01:53:04;;;;;;;9.13;5.10;;;10.00;99.90;;;;;;483972;244;28114;-81
2023/05/28 01:55:08;;;;;;;9.33;4.80;;;9.90;99.90;;;;;;483911;244;28282;-83
2023/05/28 01:57:07;;;;;;;6.13;4.53;;;9.90;99.90;;;;;;483749;245;28082;-82
2023/05/28 01:59:08;;;;;;;6.40;4.97;;;9.80;99.90;;;;;;483903;244;27971;-82
2023/05/28 02:01:10;;;;;;;8.80;5.20;;;9.80;99.90;;;;;;483883;244;27803;-81
2023/05/28 02:03:11;;;;;;;7.53;5.20;;;9.70;99.90;;;;;;483868;246;28025;-83
2023/05/28 02:05:12;;;;;;;9.60;5.10;;;9.70;99.90;;;;;;483874;244;28074;-81
2023/05/28 02:07:13;;;;;;;7.33;5.00;;;9.60;99.90;;;;;;483956;245;28112;-81
2023/05/28 02:09:14;;;;;;;9.63;5.47;;;9.60;99.90;;;;;;483922;245;27961;-82
2023/05/28 02:11:16;;;;;;;9.70;5.00;;;9.60;99.90;;;;;;483969;244;28115;-81
2023/05/28 02:13:17;;;;;;;10.20;5.00;;;9.60;99.90;;;;;;483919;244;27860;-80
2023/05/28 02:15:18;;;;;;;7.07;4.80;;;9.50;99.90;;;;;;483849;244;28079;-82
2023/05/28 02:17:20;;;;;;;9.57;4.70;;;9.50;99.90;;;;;;483942;244;28092;-82
2023/05/28 02:19:21;;;;;;;9.40;5.30;;;9.50;99.90;;;;;;483899;245;27987;-81
2023/05/28 02:21:22;;;;;;;6.40;4.70;;;9.50;99.90;;;;;;483897;244;27983;-81
2023/05/28 02:23:23;;;;;;;10.33;5.23;;;9.50;99.90;;;;;;483860;244;28174;-81
2023/05/28 02:25:25;;;;;;;7.40;5.00;;;9.50;99.90;;;;;;483884;244;28208;-84
2023/05/28 02:27:26;;;;;;;11.47;5.60;;;9.50;99.90;;;;;;483853;244;28139;-82
2023/05/28 02:29:27;;;;;;;8.10;5.40;;;9.50;99.90;;;;;;483891;245;28072;-83
2023/05/28 02:31:28;;;;;;;13.27;5.63;;;9.40;99.90;;;;;;483865;244;27944;-82
2023/05/28 02:33:29;;;;;;;7.20;4.97;;;9.40;99.90;;;;;;483894;244;27961;-81
2023/05/28 02:35:31;;;;;;;11.63;5.60;;;9.40;99.90;;;;;;483803;244;28005;-82
2023/05/28 02:37:32;;;;;;;9.70;5.53;;;9.40;99.90;;;;;;483885;244;27946;-81
2023/05/28 02:39:33;;;;;;;6.87;4.90;;;9.40;99.90;;;;;;483859;244;27807;-83
2023/05/28 02:41:34;;;;;;;7.83;5.10;;;9.40;99.90;;;;;;483813;244;28063;-83
2023/05/28 02:43:36;;;;;;;7.43;4.53;;;9.40;99.90;;;;;;483805;244;27840;-82
2023/05/28 02:45:37;;;;;;;8.40;5.40;;;9.40;99.90;;;;;;483785;243;27878;-80
2023/05/28 02:47:39;;;;;;;9.17;5.53;;;9.40;99.90;;;;;;483907;245;27961;-80
2023/05/28 02:49:39;;;;;;;8.63;4.97;;;9.40;99.90;;;;;;483858;244;27976;-82
2023/05/28 02:51:41;;;;;;;8.30;5.40;;;9.40;99.90;;;;;;483831;244;28076;-82
2023/05/28 02:53:42;;;;;;;9.10;5.33;;;9.40;99.90;;;;;;483854;245;27979;-82
2023/05/28 02:55:43;;;;;;;9.60;4.70;;;9.30;99.90;;;;;;483873;244;27845;-81
2023/05/28 02:57:45;;;;;;;6.23;5.00;;;9.40;99.90;;;;;;483882;244;28016;-81
2023/05/28 02:59:46;;;;;;;8.37;4.47;;;9.40;99.90;;;;;;483868;246;27988;-79
2023/05/28 03:01:47;;;;;;;6.70;4.90;;;9.30;99.90;;;;;;483774;246;28023;-81
2023/05/28 03:03:48;;;;;;;7.43;5.33;;;9.40;99.90;;;;;;483877;245;27979;-83
2023/05/28 03:05:50;;;;;;;9.80;5.00;;;9.40;99.90;;;;;;483848;244;27738;-82
2023/05/28 03:07:51;;;;;;;8.40;5.20;;;9.40;99.90;;;;;;483838;244;27868;-81
2023/05/28 03:09:52;;;;;;;6.53;4.70;;;9.40;99.90;;;;;;483891;244;28046;-81
2023/05/28 03:11:53;;;;;;;10.53;5.83;;;9.30;99.90;;;;;;483842;246;28056;-83
2023/05/28 03:13:54;;;;;;;8.90;4.87;;;9.40;99.90;;;;;;483834;245;27846;-81
2023/05/28 03:15:56;;;;;;;7.23;4.80;;;9.40;99.90;;;;;;483829;245;27939;-81
2023/05/28 03:17:57;;;;;;;7.70;4.67;;;9.40;99.90;;;;;;483787;244;28061;-82
2023/05/28 03:19:58;;;;;;;6.57;4.60;;;9.30;99.90;;;;;;483856;244;28106;-80
2023/05/28 03:21:59;;;;;;;8.90;5.07;;;9.30;99.90;;;;;;483870;245;28035;-82
2023/05/28 03:24:01;;;;;;;7.47;4.63;;;9.20;99.90;;;;;;483769;246;27838;-84
2023/05/28 03:26:02;;;;;;;10.80;5.53;;;9.00;99.90;;;;;;483844;244;27962;-80
2023/05/28 03:28:03;;;;;;;7.00;5.40;;;9.00;99.90;;;;;;483860;243;27858;-79
2023/05/28 03:30:06;;;;;;;6.43;4.80;;;9.00;99.90;;;;;;483820;244;27982;-81
2023/05/28 03:32:06;;;;;;;9.30;4.83;;;8.90;99.90;;;;;;483817;246;27878;-80
2023/05/28 03:34:07;;;;;;;7.47;4.87;;;8.90;99.90;;;;;;483896;245;27942;-82
2023/05/28 03:36:08;;;;;;;6.47;5.43;;;9.00;99.90;;;;;;483883;246;27991;-82
2023/05/28 03:38:09;;;;;;;6.27;4.83;;;9.00;99.90;;;;;;483907;244;28241;-83
2023/05/28 03:40:11;;;;;;;8.40;5.27;;;9.00;99.90;;;;;;483909;244;27862;-83
2023/05/28 03:42:12;;;;;;;6.47;4.77;;;9.00;99.90;;;;;;483881;244;28027;-80
2023/05/28 03:44:13;;;;;;;9.17;5.37;;;9.00;99.90;;;;;;483892;244;27825;-79
2023/05/28 03:46:15;;;;;;;6.87;4.67;;;9.00;99.90;;;;;;483871;244;28101;-81
2023/05/28 03:48:16;;;;;;;5.93;4.80;;;9.10;99.90;;;;;;483818;246;27890;-84
2023/05/28 03:50:17;;;;;;;6.97;5.00;;;9.10;99.90;;;;;;483810;244;27868;-79
2023/05/28 03:52:18;;;;;;;12.20;5.23;;;9.00;99.90;;;;;;483843;244;27989;-80
2023/05/28 03:54:22;;;;;;;9.27;5.40;;;9.10;99.90;;;;;;483842;245;27975;-80
2023/05/28 03:56:21;;;;;;;10.97;5.00;;;9.10;99.90;;;;;;483671;246;27652;-82
2023/05/28 03:58:22;;;;;;;8.10;4.97;;;9.00;99.90;;;;;;483808;244;27839;-82
2023/05/28 04:00:23;;;;;;;9.43;5.23;;;9.00;99.90;;;;;;483813;244;27902;-81
2023/05/28 04:02:24;;;;;;;11.60;5.50;;;9.00;99.90;;;;;;483800;244;27991;-80
2023/05/28 04:04:26;;;;;;;9.23;5.00;;;8.90;99.90;;;;;;483915;245;27954;-82
2023/05/28 04:06:27;;;;;;;11.70;4.77;;;9.00;99.90;;;;;;483964;244;27913;-81
2023/05/28 04:08:28;;;;;;;7.33;4.97;;;9.00;99.90;;;;;;483943;244;27859;-81
2023/05/28 04:10:29;;;;;;;6.90;4.90;;;9.00;99.90;;;;;;483924;244;27930;-80
2023/05/28 04:12:31;;;;;;;10.53;5.43;;;9.10;99.90;;;;;;483858;244;27831;-82
2023/05/28 04:14:32;;;;;;;7.80;5.00;;;9.10;99.90;;;;;;483903;245;27856;-81
2023/05/28 04:16:33;;;;;;;7.47;5.47;;;9.10;99.90;;;;;;483890;244;27833;-82
2023/05/28 04:18:34;;;;;;;7.43;4.97;;;9.10;99.90;;;;;;483889;244;27968;-82
2023/05/28 04:20:39;;;;;;;12.83;5.37;;;9.10;99.90;;;;;;483932;244;27919;-81
2023/05/28 04:22:40;;;;;;;10.83;5.23;;;9.10;99.90;;;;;;483902;244;27861;-80
2023/05/28 04:24:41;;;;;;;10.27;5.63;;;9.10;99.90;;;;;;483940;245;27802;-80
2023/05/28 04:26:42;;;;;;;7.27;5.23;;;9.20;99.90;;;;;;483921;244;28042;-83
2023/05/28 04:28:44;;;;;;;7.10;5.10;;;9.30;99.90;;;;;;484000;245;28075;-81
2023/05/28 04:30:45;;;;;;;8.70;5.00;;;9.40;99.90;;;;;;483998;245;27952;-80
2023/05/28 04:32:48;;;;;;;9.50;5.80;;;9.50;99.90;;;;;;483977;244;28107;-80
2023/05/28 04:34:47;;;;;;;9.07;5.80;;;9.60;99.90;;;;;;483901;244;27864;-80
2023/05/28 04:36:51;;;;;;;13.30;5.27;;;9.50;99.90;;;;;;483986;244;27972;-81
2023/05/28 04:38:50;;;;;;;10.90;5.30;;;9.60;99.90;;;;;;483864;245;28007;-80
2023/05/28 04:40:53;;;;;;;8.33;5.87;;;9.60;99.90;;;;;;483971;245;28020;-83
2023/05/28 04:42:56;;;;;;;8.50;5.40;;;9.60;99.90;;;;;;483826;245;28053;-82
2023/05/28 04:44:54;;;;;;;11.10;6.00;;;9.70;99.90;;;;;;483651;246;27973;-83
2023/05/28 04:46:55;;;;;;;8.00;6.10;;;9.70;99.90;;;;;;483961;246;27994;-80
2023/05/28 04:48:56;;;;;;;11.10;5.37;;;9.70;99.90;;;;;;483896;245;27993;-83
2023/05/28 04:50:57;;;;;;;6.40;5.00;;;9.70;99.90;;;;;;483971;244;28486;-81
2023/05/28 04:52:59;;;;;;;8.17;5.60;;;9.80;99.90;;;;;;483926;244;28418;-81
2023/05/28 04:55:00;;;;;;;7.57;5.03;;;9.80;99.90;;;;;;483886;246;28795;-81
2023/05/28 04:57:02;;;;;;;7.83;5.27;;;9.90;99.90;;;;;;483913;245;27958;-81
2023/05/28 04:59:04;;;;;;;9.33;5.60;;;10.00;99.90;;;;;;483906;245;28012;-80
2023/05/28 05:01:04;;;;;;;5.87;4.80;;;10.10;99.90;;;;;;483810;245;28178;-80
2023/05/28 05:03:05;;;;;;;11.80;6.07;;;10.10;99.90;;;;;;483940;245;28087;-79
2023/05/28 05:05:07;;;;;;;7.70;4.77;;;10.20;99.90;;;;;;483909;244;28076;-81
2023/05/28 05:07:07;;;;;;;10.20;5.60;;;10.20;99.90;;;;;;483926;245;28109;-82
2023/05/28 05:09:09;;;;;;;12.37;5.93;;;10.30;99.90;;;;;;483998;244;28182;-80
2023/05/28 05:11:10;;;;;;;8.33;5.17;;;10.30;99.90;;;;;;483977;245;28075;-81
2023/05/28 05:13:11;;;;;;;7.47;5.43;;;10.30;99.90;;;;;;483952;244;28192;-81
2023/05/28 05:15:12;;;;;;;8.33;6.03;;;10.40;99.90;;;;;;483938;245;27977;-83
2023/05/28 05:17:14;;;;;;;9.43;5.20;;;10.40;99.90;;;;;;483943;244;28210;-80
2023/05/28 05:19:15;;;;;;;9.67;5.47;;;10.50;99.90;;;;;;483952;244;28171;-81
2023/05/28 05:21:17;;;;;;;10.30;5.37;;;10.60;99.90;;;;;;483953;245;28391;-80
2023/05/28 05:23:17;;;;;;;8.40;4.87;;;10.60;99.90;;;;;;484009;244;28416;-79
2023/05/28 05:25:19;;;;;;;10.37;5.43;;;10.60;99.90;;;;;;484010;244;28057;-81
2023/05/28 05:27:20;;;;;;;10.90;5.50;;;10.70;99.90;;;;;;489654;240;27945;-81
2023/05/28 05:29:21;;;;;;;9.53;5.13;;;10.70;99.90;;;;;;492090;242;28150;-81
2023/05/28 05:31:22;;;;;;;8.03;5.20;;;10.70;99.90;;;;;;492096;242;28060;-81
2023/05/28 05:35:33;;;;;;;8.97;4.67;;;10.90;99.90;;;;;;469699;250;29065;-80
2023/05/28 05:37:35;;;;;;;13.93;5.00;;;11.00;99.90;;;;;;469730;254;28562;-80
2023/05/28 05:39:35;;;;;;;7.07;4.80;;;11.10;99.90;;;;;;469664;252;28224;-81
2023/05/28 05:41:37;;;;;;;8.67;5.33;;;11.20;99.90;;;;;;469710;254;28381;-80
2023/05/28 05:43:38;;;;;;;7.47;4.60;;;11.20;99.90;;;;;;469728;254;28095;-81
2023/05/28 05:45:39;;;;;;;8.30;5.23;;;11.30;99.90;;;;;;469677;254;28131;-79
2023/05/28 05:47:40;;;;;;;5.63;4.43;;;11.40;99.90;;;;;;469705;254;28139;-81
2023/05/28 05:49:42;;;;;;;7.53;5.30;;;11.50;99.90;;;;;;469696;254;28177;-82
2023/05/28 05:51:43;;;;;;;8.13;4.60;;;11.60;99.90;;;;;;469670;254;28433;-83
2023/05/28 05:53:44;;;;;;;9.37;5.00;;;11.70;99.90;;;;;;469662;254;28252;-81
2023/05/28 05:55:45;;;;;;;11.63;4.83;;;11.90;99.90;;;;;;469588;254;28821;-84
2023/05/28 05:57:49;;;;;;;11.60;4.33;;;12.20;99.90;;;;;;469615;254;28921;-82
2023/05/28 05:59:48;;;;;;;10.50;5.03;;;12.50;99.90;;;;;;469517;254;28374;-80
2023/05/28 06:01:49;;;;;;;8.87;4.63;;;12.90;99.90;;;;;;469684;254;28382;-83
2023/05/28 06:03:50;;;;;;;9.07;5.07;;;13.00;99.90;;;;;;469625;254;28258;-81
2023/05/28 06:05:52;;;;;;;11.47;5.43;;;13.20;99.90;;;;;;469586;254;28335;-81
2023/05/28 06:07:53;;;;;;;9.60;4.80;;;13.30;99.90;;;;;;469559;254;28331;-81
2023/05/28 06:09:55;;;;;;;9.03;4.60;;;13.30;99.90;;;;;;469430;254;28544;-82
2023/05/28 06:11:55;;;;;;;8.13;5.03;;;13.40;99.90;;;;;;469480;254;28262;-81
2023/05/28 06:13:57;;;;;;;9.57;5.20;;;13.40;99.90;;;;;;469512;254;28878;-80
2023/05/28 06:15:59;;;;;;;8.03;4.83;;;13.60;99.90;;;;;;469429;254;29305;-82
2023/05/28 06:18:00;;;;;;;11.33;4.40;;;13.60;99.90;;;;;;469360;253;29324;-83
2023/05/28 06:20:00;;;;;;;11.07;5.00;;;13.70;99.90;;;;;;469412;254;29504;-83
2023/05/28 06:22:02;;;;;;;8.17;4.30;;;13.80;99.90;;;;;;469376;254;28898;-85
2023/05/28 06:24:03;;;;;;;8.87;4.70;;;13.90;99.90;;;;;;469325;254;28606;-83
2023/05/28 06:26:04;;;;;;;8.73;4.80;;;13.90;99.90;;;;;;469046;254;28799;-85
2023/05/28 06:28:06;;;;;;;8.00;4.43;;;14.10;99.90;;;;;;469018;254;28780;-86
2023/05/28 06:30:07;;;;;;;5.80;4.20;;;14.10;99.90;;;;;;468921;254;28899;-82
2023/05/28 06:32:08;;;;;;;11.30;4.43;;;14.10;99.90;;;;;;468993;254;28794;-85
2023/05/28 06:34:09;;;;;;;14.13;3.90;;;14.30;99.90;;;;;;468744;254;28867;-82
2023/05/28 06:36:11;;;;;;;15.33;4.80;;;14.40;99.90;;;;;;468816;254;28894;-83
2023/05/28 06:38:12;;;;;;;8.37;4.73;;;14.60;99.90;;;;;;468785;254;29381;-86
2023/05/28 06:40:13;;;;;;;9.73;5.10;;;14.60;99.90;;;;;;468774;254;29244;-82
2023/05/28 06:42:14;;;;;;;16.07;5.47;;;14.60;99.90;;;;;;468705;254;29245;-84
2023/05/28 06:44:15;;;;;;;6.43;3.97;;;14.80;99.90;;;;;;468641;254;28858;-84
2023/05/28 06:46:17;;;;;;;14.53;4.40;;;14.80;99.90;;;;;;468625;254;28870;-82
2023/05/28 06:48:18;;;;;;;7.93;4.53;;;14.80;99.90;;;;;;468679;254;28779;-85
2023/05/28 06:50:19;;;;;;;8.50;4.83;;;14.80;99.90;;;;;;468597;254;28799;-84
2023/05/28 06:52:21;;;;;;;8.00;4.40;;;15.00;99.90;;;;;;468563;254;28784;-84
2023/05/28 06:54:22;;;;;;;8.33;5.10;;;14.90;99.90;;;;;;468486;254;28820;-84
2023/05/28 06:56:23;;;;;;;8.30;4.43;;;15.00;99.90;;;;;;468525;254;28888;-82
2023/05/28 06:58:24;;;;;;;7.47;4.63;;;14.90;99.90;;;;;;468554;254;28793;-84
2023/05/28 07:00:25;;;;;;;6.27;4.10;;;15.00;99.90;;;;;;468558;254;29291;-83
2023/05/28 07:02:27;;;;;;;11.93;4.77;;;15.20;99.90;;;;;;468527;254;29716;-84
2023/05/28 07:04:28;;;;;;;8.43;4.70;;;15.20;99.90;;;;;;468477;254;29276;-85
2023/05/28 07:06:30;;;;;;;8.03;4.57;;;15.40;99.90;;;;;;468458;254;28807;-82
2023/05/28 07:08:30;;;;;;;8.10;4.43;;;15.40;99.90;;;;;;468468;254;28767;-84
2023/05/28 07:10:32;;;;;;;10.73;4.80;;;15.40;99.90;;;;;;468466;254;28812;-84
2023/05/28 07:12:33;;;;;;;9.20;4.37;;;15.50;99.90;;;;;;468461;254;28821;-84
2023/05/28 07:14:34;;;;;;;11.20;4.93;;;15.50;99.90;;;;;;468422;254;28811;-83
2023/05/28 07:16:35;;;;;;;8.27;4.40;;;15.70;99.90;;;;;;468449;254;28854;-84
2023/05/28 07:18:37;;;;;;;7.20;4.47;;;15.60;99.90;;;;;;468500;254;28863;-83
2023/05/28 07:20:38;;;;;;;6.93;4.67;;;15.70;99.90;;;;;;468459;254;28795;-85
2023/05/28 07:22:39;;;;;;;11.30;4.70;;;15.90;99.90;;;;;;468450;254;28801;-83
2023/05/28 07:24:40;;;;;;;7.43;4.60;;;15.90;99.90;;;;;;468409;254;29259;-85
2023/05/28 07:26:42;;;;;;;6.03;4.13;;;15.90;99.90;;;;;;468456;254;29282;-84
2023/05/28 07:28:43;;;;;;;11.50;4.97;;;15.90;99.90;;;;;;468404;253;28799;-85
2023/05/28 07:30:44;;;;;;;7.10;4.87;;;16.00;99.90;;;;;;468426;254;28853;-84
2023/05/28 07:32:45;;;;;;;9.13;4.70;;;16.10;99.90;;;;;;468405;254;28792;-84
2023/05/28 07:34:47;;;;;;;9.70;4.20;;;16.20;99.90;;;;;;468361;254;28788;-85
2023/05/28 07:36:48;;;;;;;7.80;4.60;;;16.20;99.90;;;;;;468403;254;28884;-83
2023/05/28 07:38:50;;;;;;;9.30;4.20;;;16.50;99.90;;;;;;468443;254;28793;-84
2023/05/28 07:40:50;;;;;;;11.43;5.20;;;16.50;99.90;;;;;;468410;254;28800;-83
2023/05/28 07:42:52;;;;;;;6.43;4.30;;;16.40;99.90;;;;;;468406;254;28803;-85
2023/05/28 07:44:53;;;;;;;6.87;4.47;;;16.50;99.90;;;;;;468350;254;28787;-84
2023/05/28 07:46:54;;;;;;;9.00;4.27;;;16.90;99.90;;;;;;468388;254;29351;-84
2023/05/28 07:48:56;;;;;;;9.10;4.73;;;17.10;99.90;;;;;;468378;253;29345;-85
2023/05/28 07:50:57;;;;;;;9.27;4.90;;;17.00;99.90;;;;;;468411;254;29351;-83
2023/05/28 07:52:58;;;;;;;9.13;4.83;;;16.90;99.90;;;;;;468397;254;28793;-82
2023/05/28 07:54:59;;;;;;;9.53;5.03;;;17.10;99.90;;;;;;468332;254;28800;-84
2023/05/28 07:57:02;;;;;;;6.37;4.23;;;17.10;99.90;;;;;;468390;254;28799;-84
2023/05/28 07:59:02;;;;;;;9.30;4.53;;;17.10;99.90;;;;;;468349;254;28807;-86
2023/05/28 08:01:08;;;;;;;7.50;4.07;;;17.00;99.90;;;;;;468428;254;28792;-84
2023/05/28 08:03:04;;;;;;;10.80;4.50;;;17.10;99.90;;;;;;468078;254;28800;-82
2023/05/28 08:05:06;;;;;;;7.37;4.50;;;17.20;99.90;;;;;;468357;254;28800;-84
2023/05/28 08:07:07;;;;;;;11.40;4.97;;;17.20;99.90;;;;;;468381;254;28801;-84
2023/05/28 08:09:08;;;;;;;9.40;4.30;;;17.30;99.90;;;;;;468389;254;29280;-85
2023/05/28 08:11:13;;;;;;;9.90;4.93;;;17.30;99.90;;;;;;468395;254;29392;-84
2023/05/28 08:13:11;;;;;;;12.00;4.57;;;17.20;99.90;;;;;;468190;254;29273;-80
2023/05/28 08:15:12;;;;;;;8.77;4.40;;;17.30;99.70;;;;;;468348;254;28909;-84
2023/05/28 08:17:13;;;;;;;7.23;4.50;;;17.30;99.90;;;;;;468377;254;28784;-84
2023/05/28 08:19:15;;;;;;;5.97;4.00;;;17.40;99.90;;;;;;468401;254;28785;-84
2023/05/28 08:21:16;;;;;;;10.60;4.67;;;17.50;99.40;;;;;;468382;254;28887;-84
2023/05/28 08:23:17;;;;;;;12.17;5.33;;;17.60;99.90;;;;;;468388;254;28894;-83
2023/05/28 08:25:18;;;;;;;6.53;4.33;;;17.70;99.50;;;;;;468361;254;28805;-84
2023/05/28 08:27:20;;;;;;;5.87;4.30;;;17.80;99.50;;;;;;468395;254;28812;-81
2023/05/28 08:29:21;;;;;;;11.20;4.87;;;18.10;97.70;;;;;;468381;254;28881;-83
2023/05/28 08:31:22;;;;;;;9.40;4.63;;;18.30;98.20;;;;;;468392;254;29252;-84
2023/05/28 08:33:23;;;;;;;9.90;4.37;;;18.40;96.80;;;;;;468374;254;29336;-82
2023/05/28 08:35:25;;;;;;;9.43;4.70;;;18.30;97.20;;;;;;468346;252;29389;-84
2023/05/28 08:37:26;;;;;;;9.57;4.70;;;18.40;97.00;;;;;;468351;254;28788;-83
2023/05/28 08:39:27;;;;;;;8.13;4.40;;;18.50;97.30;;;;;;468394;254;28889;-84
2023/05/28 08:41:28;;;;;;;6.30;4.33;;;18.60;97.90;;;;;;468372;254;28773;-83
2023/05/28 08:43:29;;;;;;;11.10;4.60;;;18.40;98.10;;;;;;468385;254;28814;-83
2023/05/28 08:45:31;;;;;;;6.63;4.00;;;18.80;96.30;;;;;;468354;254;28796;-83
2023/05/28 08:47:32;;;;;;;9.67;4.73;;;18.70;94.30;;;;;;468374;254;28886;-84
2023/05/28 08:49:33;;;;;;;10.33;4.17;;;18.70;94.90;;;;;;468371;254;28892;-82
2023/05/28 08:51:35;;;;;;;8.17;4.50;;;18.80;94.10;;;;;;468383;254;28883;-83
2023/05/28 08:53:36;;;;;;;9.97;4.70;;;18.70;95.60;;;;;;468325;254;29375;-84
2023/05/28 08:55:37;;;;;;;7.90;4.83;;;18.70;96.50;;;;;;468337;254;29372;-83
2023/05/28 08:57:38;;;;;;;7.47;3.97;;;19.00;94.30;;;;;;468410;254;29292;-83
2023/05/28 08:59:39;;;;;;;8.97;4.50;;;19.30;92.30;;;;;;468433;254;29361;-81
2023/05/28 09:01:41;;;;;;;12.07;4.03;;;19.20;91.60;;;;;;468416;254;28797;-84
2023/05/28 09:03:42;;;;;;;8.30;4.63;;;19.00;92.60;;;;;;468432;254;28830;-83
2023/05/28 09:05:43;;;;;;;13.23;4.30;;;19.10;91.50;;;;;;468400;254;28799;-84
2023/05/28 09:07:44;;;;;;;13.23;4.63;;;19.30;91.00;;;;;;468425;254;28866;-84
2023/05/28 09:09:46;;;;;;;8.27;4.77;;;19.20;88.10;;;;;;468421;254;28801;-82
2023/05/28 09:11:47;;;;;;;6.37;4.13;;;19.30;89.30;;;;;;468424;253;28875;-84
2023/05/28 09:13:48;;;;;;;7.50;4.70;;;19.20;90.10;;;;;;468423;254;28882;-82
2023/05/28 09:15:50;;;;;;;8.00;3.80;;;19.30;91.60;;;;;;468369;253;28789;-83
2023/05/28 09:17:51;;;;;;;9.53;4.20;;;19.30;91.00;;;;;;468395;254;29388;-83
2023/05/28 09:19:52;;;;;;;8.60;4.70;;;19.80;91.60;;;;;;468417;254;29292;-81
2023/05/28 09:21:53;;;;;;;8.70;4.13;;;19.90;88.50;;;;;;468426;254;29260;-83
2023/05/28 09:23:54;;;;;;;6.63;4.27;;;19.80;83.00;;;;;;468413;254;28799;-83
2023/05/28 09:26:00;;;;;;;8.50;3.60;;;19.80;81.50;;;;;;468382;254;28861;-82
2023/05/28 09:28:00;;;;;;;7.73;3.70;;;19.90;77.90;;;;;;468306;254;28803;-83
2023/05/28 09:30:01;;;;;;;8.07;4.10;;;19.90;78.10;;;;;;468371;254;28802;-83
2023/05/28 09:32:02;;;;;;;5.57;3.70;;;20.10;77.50;;;;;;468420;254;28892;-83
2023/05/28 09:34:03;;;;;;;10.13;3.77;;;20.00;78.80;;;;;;468404;253;28787;-84
2023/05/28 09:36:05;;;;;;;9.87;4.90;;;20.10;77.80;;;;;;468365;254;28796;-81
2023/05/28 09:38:07;;;;;;;7.50;4.20;;;20.20;76.00;;;;;;468411;254;28796;-82
2023/05/28 09:40:10;;;;;;;8.67;3.77;;;20.20;73.10;;;;;;468329;254;29262;-82
2023/05/28 09:42:13;;;;;;;5.33;3.83;;;20.10;73.80;;;;;;468218;253;29423;-83
2023/05/28 09:44:12;;;;;;;7.80;3.83;;;20.10;72.90;;;;;;468337;254;28861;-82
2023/05/28 09:46:14;;;;;;;6.17;4.00;;;19.90;74.70;;;;;;468385;254;28797;-83
2023/05/28 09:48:15;;;;;;;6.40;3.80;;;20.10;76.10;;;;;;468411;254;28888;-83
2023/05/28 09:50:16;;;;;;;21.07;4.27;;;20.10;74.90;;;;;;468411;254;28866;-82
2023/05/28 09:52:19;;;;;;;7.77;4.60;;;20.10;72.50;;;;;;468407;254;29323;-83
2023/05/28 09:54:19;;;;;;;9.70;3.60;;;20.20;74.30;;;;;;468317;253;29629;-83
2023/05/28 09:56:20;;;;;;;6.03;4.23;;;20.60;73.70;;;;;;468354;254;29264;-84
2023/05/28 09:58:21;;;;;;;7.07;3.97;;;20.30;69.30;;;;;;468421;254;28795;-81
2023/05/28 10:00:23;;;;;;;27.53;4.50;;;20.40;71.10;;;;;;468394;254;28802;-83
2023/05/28 10:02:24;;;;;;;7.80;4.37;;;20.70;71.50;;;;;;468414;254;28894;-82
2023/05/28 10:04:25;;;;;;;7.80;4.30;;;20.70;70.50;;;;;;468360;254;28798;-81
2023/05/28 10:06:26;;;;;;;5.93;4.00;;;20.50;69.60;;;;;;468412;254;28807;-82
2023/05/28 10:08:27;;;;;;;6.47;4.00;;;20.60;70.20;;;;;;468379;254;28867;-82
2023/05/28 10:10:29;;;;;;;5.33;3.93;;;20.80;70.30;;;;;;468365;254;28784;-82
2023/05/28 10:12:30;;;;;;;10.20;4.30;;;20.80;69.80;;;;;;468360;254;28883;-82
2023/05/28 10:14:31;;;;;;;6.47;3.70;;;20.80;66.90;;;;;;468349;254;29338;-83
2023/05/28 10:16:32;;;;;;;7.53;3.87;;;20.80;68.10;;;;;;468356;254;29286;-84
2023/05/28 10:18:34;;;;;;;8.87;4.13;;;20.80;66.00;;;;;;468390;254;29257;-81
2023/05/28 10:20:35;;;;;;;7.33;3.90;;;20.80;67.40;;;;;;468371;254;29383;-82
2023/05/28 10:22:36;;;;;;;6.33;3.43;;;21.10;67.80;;;;;;468374;254;28871;-81
2023/05/28 10:24:37;;;;;;;7.50;3.80;;;21.00;64.60;;;;;;468338;253;28773;-83
2023/05/28 10:26:39;;;;;;;7.70;4.00;;;20.80;65.30;;;;;;468382;253;28892;-83
2023/05/28 10:28:40;;;;;;;6.47;3.40;;;20.60;65.50;;;;;;468402;254;28880;-82
2023/05/28 10:30:41;;;;;;;12.27;4.07;;;20.60;68.50;;;;;;468391;254;28883;-83
2023/05/28 10:32:42;;;;;;;10.63;3.70;;;20.80;65.40;;;;;;468401;254;28819;-82
2023/05/28 10:34:44;;;;;;;8.00;3.80;;;21.20;65.50;;;;;;468367;254;28882;-83
2023/05/28 10:36:45;;;;;;;5.83;3.87;;;21.30;65.20;;;;;;468371;254;28796;-82
2023/05/28 10:38:46;;;;;;;10.93;3.80;;;21.10;66.70;;;;;;468396;254;29272;-81